createdAt,value
2017-11-17T00:00:34.036Z,1023.20
2017-11-17T00:02:01.393Z,1023.25
2017-11-17T00:03:28.660Z,1023.22
2017-11-17T00:04:56.109Z,1023.20
2017-11-17T00:06:23.236Z,1023.20
2017-11-17T00:07:50.690Z,1023.24
2017-11-17T00:09:17.988Z,1023.24
2017-11-17T00:10:45.229Z,1023.25
2017-11-17T00:12:12.448Z,1023.27
2017-11-17T00:13:39.665Z,1023.26
2017-11-17T00:15:06.954Z,1023.23
2017-11-17T00:16:34.232Z,1023.24
2017-11-17T00:18:01.458Z,1023.26
2017-11-17T00:19:28.765Z,1023.26
2017-11-17T00:20:56.100Z,1023.28
2017-11-17T00:22:23.189Z,1023.22
2017-11-17T00:23:50.743Z,1023.23
2017-11-17T00:25:18.016Z,1023.26
2017-11-17T00:26:45.342Z,1023.28
2017-11-17T00:28:12.919Z,1023.29
2017-11-17T00:29:40.268Z,1023.35
2017-11-17T00:31:07.588Z,1023.38
2017-11-17T00:32:34.973Z,1023.45
2017-11-17T00:34:02.125Z,1023.44
2017-11-17T00:35:29.487Z,1023.49
2017-11-17T00:36:56.758Z,1023.44
2017-11-17T00:38:24.024Z,1023.44
2017-11-17T00:39:51.464Z,1023.42
2017-11-17T00:41:18.551Z,1023.45
2017-11-17T00:42:45.938Z,1023.52
2017-11-17T00:44:12.865Z,1023.51
2017-11-17T00:45:40.292Z,1023.56
2017-11-17T00:47:07.512Z,1023.63
2017-11-17T00:48:34.773Z,1023.69
2017-11-17T00:50:02.045Z,1023.75
2017-11-17T00:51:29.297Z,1023.82
2017-11-17T00:52:56.748Z,1023.84
2017-11-17T00:54:24.068Z,1023.83
2017-11-17T00:55:51.423Z,1023.83
2017-11-17T00:57:18.791Z,1023.82
2017-11-17T00:58:45.932Z,1023.86
2017-11-17T01:00:13.271Z,1023.89
2017-11-17T01:01:40.676Z,1023.92
2017-11-17T01:03:07.953Z,1023.90
2017-11-17T01:04:35.287Z,1023.91
2017-11-17T01:06:02.681Z,1023.95
2017-11-17T01:07:30.121Z,1023.97
2017-11-17T01:08:57.290Z,1023.98
2017-11-17T01:10:24.614Z,1024.01
2017-11-17T01:11:51.924Z,1024.06
2017-11-17T01:13:19.241Z,1024.09
2017-11-17T01:14:46.604Z,1024.12
2017-11-17T01:16:14.112Z,1024.17
2017-11-17T01:17:41.251Z,1024.20
2017-11-17T01:19:08.561Z,1024.21
2017-11-17T01:20:35.970Z,1024.23
2017-11-17T01:22:03.256Z,1024.23
2017-11-17T01:23:30.566Z,1024.24
2017-11-17T01:24:57.885Z,1024.25
2017-11-17T01:26:25.093Z,1024.26
2017-11-17T01:27:52.379Z,1024.28
2017-11-17T01:29:19.802Z,1024.28
2017-11-17T01:30:47.115Z,1024.29
2017-11-17T01:32:14.379Z,1024.32
2017-11-17T01:33:41.368Z,1024.33
2017-11-17T01:35:08.860Z,1024.36
2017-11-17T01:36:36.131Z,1024.38
2017-11-17T01:38:03.486Z,1024.41
2017-11-17T01:39:30.798Z,1024.43
2017-11-17T01:40:57.955Z,1024.46
2017-11-17T01:42:25.257Z,1024.48
2017-11-17T01:43:52.395Z,1024.48
2017-11-17T01:45:19.777Z,1024.48
2017-11-17T01:46:47.040Z,1024.53
2017-11-17T01:48:14.213Z,1024.51
2017-11-17T01:49:41.661Z,1024.53
2017-11-17T01:51:08.976Z,1024.54
2017-11-17T01:52:36.381Z,1024.60
2017-11-17T01:54:03.444Z,1024.60
2017-11-17T01:55:30.946Z,1024.60
2017-11-17T01:56:58.132Z,1024.61
2017-11-17T01:58:25.461Z,1024.62
2017-11-17T01:59:52.375Z,1024.64
2017-11-17T02:01:19.593Z,1024.68
2017-11-17T02:02:47.132Z,1024.68
2017-11-17T02:04:14.349Z,1024.72
2017-11-17T02:05:41.597Z,1024.76
2017-11-17T02:07:09.001Z,1024.77
2017-11-17T02:08:36.418Z,1024.81
2017-11-17T02:10:03.880Z,1024.85
2017-11-17T02:11:31.015Z,1024.87
2017-11-17T02:12:58.324Z,1024.86
2017-11-17T02:14:25.562Z,1024.88
2017-11-17T02:15:52.658Z,1024.92
2017-11-17T02:17:19.977Z,1024.93
2017-11-17T02:18:47.331Z,1024.95
2017-11-17T02:20:14.744Z,1024.93
2017-11-17T02:21:42.304Z,1024.93
2017-11-17T02:23:09.559Z,1024.93
2017-11-17T02:24:36.962Z,1024.95
2017-11-17T02:26:04.422Z,1024.96
2017-11-17T02:27:31.675Z,1024.96
2017-11-17T02:28:59.138Z,1024.98
2017-11-17T02:30:26.265Z,1024.98
2017-11-17T02:31:53.483Z,1025.00
2017-11-17T02:33:20.874Z,1024.99
2017-11-17T02:34:48.183Z,1024.97
2017-11-17T02:36:15.526Z,1025.01
2017-11-17T02:37:42.739Z,1025.01
2017-11-17T02:39:10.184Z,1025.02
2017-11-17T02:40:37.229Z,1025.07
2017-11-17T02:42:04.537Z,1025.08
2017-11-17T02:43:31.957Z,1025.10
2017-11-17T02:44:59.179Z,1025.10
2017-11-17T02:46:26.332Z,1025.12
2017-11-17T02:47:53.510Z,1025.13
2017-11-17T02:49:20.947Z,1025.14
2017-11-17T02:50:48.251Z,1025.17
2017-11-17T02:52:15.533Z,1025.19
2017-11-17T02:53:42.991Z,1025.20
2017-11-17T02:55:10.221Z,1025.21
2017-11-17T02:56:37.604Z,1025.20
2017-11-17T02:58:04.898Z,1025.24
2017-11-17T02:59:32.111Z,1025.21
2017-11-17T03:00:59.374Z,1025.24
2017-11-17T03:02:26.886Z,1025.27
2017-11-17T03:03:54.065Z,1025.29
2017-11-17T03:05:21.332Z,1025.27
2017-11-17T03:06:48.567Z,1025.29
2017-11-17T03:08:15.905Z,1025.28
2017-11-17T03:09:42.994Z,1025.28
2017-11-17T03:11:10.269Z,1025.28
2017-11-17T03:12:37.629Z,1025.28
2017-11-17T03:14:05.089Z,1025.30
2017-11-17T03:15:32.242Z,1025.32
2017-11-17T03:16:59.420Z,1025.32
2017-11-17T03:18:26.853Z,1025.35
2017-11-17T03:19:54.092Z,1025.39
2017-11-17T03:21:21.303Z,1025.40
2017-11-17T03:22:48.514Z,1025.41
2017-11-17T03:24:15.987Z,1025.43
2017-11-17T03:25:43.323Z,1025.45
2017-11-17T03:27:10.545Z,1025.46
2017-11-17T03:28:37.830Z,1025.49
2017-11-17T03:30:05.101Z,1025.50
2017-11-17T03:31:32.342Z,1025.50
2017-11-17T03:32:59.516Z,1025.50
2017-11-17T03:34:26.926Z,1025.53
2017-11-17T03:35:53.928Z,1025.53
2017-11-17T03:37:20.951Z,1025.56
2017-11-17T03:38:48.260Z,1025.59
2017-11-17T03:40:15.639Z,1025.61
2017-11-17T03:41:42.997Z,1025.62
2017-11-17T03:43:10.323Z,1025.65
2017-11-17T03:44:37.655Z,1025.65
2017-11-17T03:46:04.930Z,1025.66
2017-11-17T03:47:32.088Z,1025.69
2017-11-17T03:48:59.419Z,1025.69
2017-11-17T03:50:26.687Z,1025.70
2017-11-17T03:51:53.810Z,1025.74
2017-11-17T03:53:21.140Z,1025.77
2017-11-17T03:54:48.413Z,1025.79
2017-11-17T03:56:15.778Z,1025.80
2017-11-17T03:57:42.801Z,1025.81
2017-11-17T03:59:10.032Z,1025.81
2017-11-17T04:00:37.238Z,1025.85
2017-11-17T04:02:04.528Z,1025.89
2017-11-17T04:03:31.969Z,1025.92
2017-11-17T04:04:59.209Z,1025.93
2017-11-17T04:06:26.408Z,1025.95
2017-11-17T04:07:53.711Z,1025.94
2017-11-17T04:09:20.951Z,1025.96
2017-11-17T04:10:48.331Z,1025.93
2017-11-17T04:12:15.639Z,1025.92
2017-11-17T04:13:42.961Z,1025.92
2017-11-17T04:15:10.187Z,1025.93
2017-11-17T04:16:37.541Z,1025.91
2017-11-17T04:18:04.777Z,1025.91
2017-11-17T04:19:32.097Z,1025.91
2017-11-17T04:20:59.452Z,1025.96
2017-11-17T04:22:26.664Z,1025.97
2017-11-17T04:23:53.641Z,1026.01
2017-11-17T04:25:20.990Z,1026.03
2017-11-17T04:26:48.348Z,1026.06
2017-11-17T04:28:15.761Z,1026.09
2017-11-17T04:29:43.170Z,1026.10
2017-11-17T04:31:10.520Z,1026.11
2017-11-17T04:32:37.663Z,1026.12
2017-11-17T04:34:04.906Z,1026.11
2017-11-17T04:35:32.013Z,1026.10
2017-11-17T04:36:59.244Z,1026.12
2017-11-17T04:38:26.452Z,1026.13
2017-11-17T04:39:53.570Z,1026.15
2017-11-17T04:41:20.985Z,1026.14
2017-11-17T04:42:48.316Z,1026.14
2017-11-17T04:44:15.524Z,1026.15
2017-11-17T04:45:42.925Z,1026.16
2017-11-17T04:47:10.212Z,1026.19
2017-11-17T04:48:37.572Z,1026.23
2017-11-17T04:50:04.777Z,1026.24
2017-11-17T04:51:31.929Z,1026.27
2017-11-17T04:52:59.220Z,1026.28
2017-11-17T04:54:26.353Z,1026.27
2017-11-17T04:55:53.493Z,1026.27
2017-11-17T04:57:20.810Z,1026.25
2017-11-17T04:58:47.976Z,1026.25
2017-11-17T05:00:15.204Z,1026.26
2017-11-17T05:01:42.478Z,1026.27
2017-11-17T05:03:10.086Z,1026.28
2017-11-17T05:04:37.229Z,1026.31
2017-11-17T05:06:04.528Z,1026.36
2017-11-17T05:07:31.764Z,1026.35
2017-11-17T05:08:59.101Z,1026.36
2017-11-17T05:10:26.383Z,1026.37
2017-11-17T05:11:53.560Z,1026.38
2017-11-17T05:13:20.652Z,1026.38
2017-11-17T05:14:47.859Z,1026.38
2017-11-17T05:16:15.194Z,1026.40
2017-11-17T05:17:42.448Z,1026.42
2017-11-17T05:19:09.848Z,1026.44
2017-11-17T05:20:37.232Z,1026.49
2017-11-17T05:22:04.647Z,1026.50
2017-11-17T05:23:31.785Z,1026.53
2017-11-17T05:24:58.917Z,1026.55
2017-11-17T05:26:26.317Z,1026.59
2017-11-17T05:27:53.815Z,1026.60
2017-11-17T05:29:20.978Z,1026.59
2017-11-17T05:30:48.418Z,1026.62
2017-11-17T05:32:15.487Z,1026.62
2017-11-17T05:33:42.901Z,1026.65
2017-11-17T05:35:10.308Z,1026.66
2017-11-17T05:36:37.686Z,1026.67
2017-11-17T05:38:04.893Z,1026.69
2017-11-17T05:39:32.240Z,1026.70
2017-11-17T05:40:59.352Z,1026.70
2017-11-17T05:42:26.535Z,1026.71
2017-11-17T05:43:53.740Z,1026.74
2017-11-17T05:45:21.150Z,1026.75
2017-11-17T05:46:48.432Z,1026.77
2017-11-17T05:48:15.850Z,1026.80
2017-11-17T05:49:43.168Z,1026.81
2017-11-17T05:51:10.274Z,1026.86
2017-11-17T05:52:37.684Z,1026.84
2017-11-17T05:54:04.791Z,1026.88
2017-11-17T05:55:31.993Z,1026.92
2017-11-17T05:56:59.113Z,1026.94
2017-11-17T05:58:26.290Z,1026.96
2017-11-17T05:59:53.413Z,1026.98
2017-11-17T06:01:20.806Z,1027.00
2017-11-17T06:02:48.193Z,1026.99
2017-11-17T06:04:15.362Z,1027.00
2017-11-17T06:05:42.398Z,1027.00
2017-11-17T06:07:09.542Z,1027.01
2017-11-17T06:08:36.878Z,1027.04
2017-11-17T06:10:04.039Z,1027.07
2017-11-17T06:11:31.357Z,1027.09
2017-11-17T06:12:58.544Z,1027.09
2017-11-17T06:14:25.814Z,1027.10
2017-11-17T06:15:52.942Z,1027.11
2017-11-17T06:17:20.293Z,1027.14
2017-11-17T06:18:47.620Z,1027.19
2017-11-17T06:20:15.021Z,1027.20
2017-11-17T06:21:42.263Z,1027.22
2017-11-17T06:23:09.491Z,1027.21
2017-11-17T06:24:36.690Z,1027.21
2017-11-17T06:26:04.102Z,1027.25
2017-11-17T06:27:31.339Z,1027.25
2017-11-17T06:28:58.554Z,1027.28
2017-11-17T06:30:25.693Z,1027.29
2017-11-17T06:31:52.811Z,1027.33
2017-11-17T06:33:20.018Z,1027.35
2017-11-17T06:34:47.511Z,1027.37
2017-11-17T06:36:14.609Z,1027.40
2017-11-17T06:37:41.621Z,1027.41
2017-11-17T06:39:08.843Z,1027.40
2017-11-17T06:40:36.093Z,1027.40
2017-11-17T06:42:03.296Z,1027.43
2017-11-17T06:43:30.538Z,1027.45
2017-11-17T06:44:57.773Z,1027.46
2017-11-17T06:46:28.152Z,1027.47
2017-11-17T06:47:52.224Z,1027.46
2017-11-17T06:49:19.588Z,1027.47
2017-11-17T06:50:46.884Z,1027.47
2017-11-17T06:52:14.277Z,1027.47
2017-11-17T06:53:41.598Z,1027.46
2017-11-17T06:55:08.844Z,1027.47
2017-11-17T06:56:36.085Z,1027.45
2017-11-17T06:58:03.459Z,1027.46
2017-11-17T06:59:30.712Z,1027.45
2017-11-17T07:00:57.890Z,1027.45
2017-11-17T07:02:25.247Z,1027.46
2017-11-17T07:03:52.321Z,1027.51
2017-11-17T07:05:19.626Z,1027.54
2017-11-17T07:06:46.998Z,1027.57
2017-11-17T07:08:14.004Z,1027.61
2017-11-17T07:09:41.405Z,1027.59
2017-11-17T07:11:08.520Z,1027.62
2017-11-17T07:12:35.707Z,1027.63
2017-11-17T07:14:02.908Z,1027.65
2017-11-17T07:15:30.146Z,1027.66
2017-11-17T07:16:57.307Z,1027.64
2017-11-17T07:18:24.461Z,1027.67
2017-11-17T07:19:51.642Z,1027.66
2017-11-17T07:21:18.852Z,1027.66
2017-11-17T07:22:46.017Z,1027.66
2017-11-17T07:24:13.366Z,1027.68
2017-11-17T07:25:40.583Z,1027.68
2017-11-17T07:27:07.803Z,1027.71
2017-11-17T07:28:35.151Z,1027.72
2017-11-17T07:30:02.343Z,1027.72
2017-11-17T07:31:29.514Z,1027.75
2017-11-17T07:32:56.652Z,1027.77
2017-11-17T07:34:23.899Z,1027.78
2017-11-17T07:35:51.077Z,1027.78
2017-11-17T07:37:18.407Z,1027.78
2017-11-17T07:38:45.765Z,1027.81
2017-11-17T07:40:13.044Z,1027.83
2017-11-17T07:41:40.418Z,1027.85
2017-11-17T07:43:07.619Z,1027.87
2017-11-17T07:44:34.986Z,1027.90
2017-11-17T07:46:01.982Z,1027.90
2017-11-17T07:47:29.242Z,1027.90
2017-11-17T07:48:56.364Z,1027.89
2017-11-17T07:50:23.536Z,1027.89
2017-11-17T07:51:50.923Z,1027.89
2017-11-17T07:53:18.150Z,1027.88
2017-11-17T07:54:45.351Z,1027.89
2017-11-17T07:56:12.728Z,1027.90
2017-11-17T07:57:40.076Z,1027.90
2017-11-17T07:59:07.125Z,1027.92
2017-11-17T08:00:34.414Z,1027.94
2017-11-17T08:02:01.462Z,1027.96
2017-11-17T08:03:28.870Z,1027.99
2017-11-17T08:04:56.005Z,1028.01
2017-11-17T08:06:23.068Z,1028.01
2017-11-17T08:07:50.420Z,1028.03
2017-11-17T08:09:17.575Z,1028.05
2017-11-17T08:10:45.155Z,1028.04
2017-11-17T08:12:12.252Z,1028.07
2017-11-17T08:13:39.358Z,1028.07
2017-11-17T08:15:06.712Z,1028.04
2017-11-17T08:16:33.928Z,1028.04
2017-11-17T08:18:01.109Z,1028.05
2017-11-17T08:19:28.190Z,1028.08
2017-11-17T08:20:55.411Z,1028.10
2017-11-17T08:22:22.782Z,1028.13
2017-11-17T08:23:50.090Z,1028.13
2017-11-17T08:25:17.488Z,1028.15
2017-11-17T08:26:44.614Z,1028.18
2017-11-17T08:28:11.850Z,1028.20
2017-11-17T08:29:39.067Z,1028.21
2017-11-17T08:31:06.482Z,1028.19
2017-11-17T08:32:33.598Z,1028.20
2017-11-17T08:34:01.068Z,1028.19
2017-11-17T08:35:28.101Z,1028.19
2017-11-17T08:36:55.313Z,1028.21
2017-11-17T08:38:22.831Z,1028.24
2017-11-17T08:39:50.043Z,1028.22
2017-11-17T08:41:17.325Z,1028.22
2017-11-17T08:42:44.682Z,1028.23
2017-11-17T08:44:12.033Z,1028.25
2017-11-17T08:45:39.701Z,1028.24
2017-11-17T08:47:06.692Z,1028.25
2017-11-17T08:48:33.949Z,1028.24
2017-11-17T08:50:01.159Z,1028.24
2017-11-17T08:51:28.572Z,1028.26
2017-11-17T08:52:55.685Z,1028.27
2017-11-17T08:54:22.926Z,1028.29
2017-11-17T08:55:50.062Z,1028.29
2017-11-17T08:57:17.428Z,1028.29
2017-11-17T08:58:44.642Z,1028.31
2017-11-17T09:00:11.937Z,1028.32
2017-11-17T09:01:39.265Z,1028.35
2017-11-17T09:03:06.525Z,1028.37
2017-11-17T09:04:33.735Z,1028.38
2017-11-17T09:06:00.907Z,1028.38
2017-11-17T09:07:28.437Z,1028.39
2017-11-17T09:08:55.665Z,1028.39
2017-11-17T09:10:22.844Z,1028.40
2017-11-17T09:11:50.137Z,1028.42
2017-11-17T09:13:17.513Z,1028.42
2017-11-17T09:14:44.602Z,1028.43
2017-11-17T09:16:11.988Z,1028.41
2017-11-17T09:17:39.351Z,1028.42
2017-11-17T09:19:06.636Z,1028.44
2017-11-17T09:20:33.934Z,1028.44
2017-11-17T09:22:01.270Z,1028.43
2017-11-17T09:23:28.593Z,1028.45
2017-11-17T09:24:55.750Z,1028.44
2017-11-17T09:26:22.820Z,1028.44
2017-11-17T09:27:50.187Z,1028.46
2017-11-17T09:29:17.522Z,1028.46
2017-11-17T09:30:44.748Z,1028.47
2017-11-17T09:32:12.141Z,1028.50
2017-11-17T09:33:39.424Z,1028.51
2017-11-17T09:35:06.692Z,1028.52
2017-11-17T09:36:34.009Z,1028.57
2017-11-17T09:38:01.307Z,1028.54
2017-11-17T09:39:28.448Z,1028.51
2017-11-17T09:40:55.781Z,1028.51
2017-11-17T09:42:22.763Z,1028.53
2017-11-17T09:43:50.076Z,1028.53
2017-11-17T09:45:17.418Z,1028.53
2017-11-17T09:46:44.568Z,1028.55
2017-11-17T09:48:11.961Z,1028.54
2017-11-17T09:49:39.341Z,1028.53
2017-11-17T09:51:06.524Z,1028.53
2017-11-17T09:52:33.698Z,1028.51
2017-11-17T09:54:00.884Z,1028.50
2017-11-17T09:55:28.112Z,1028.51
2017-11-17T09:56:55.512Z,1028.52
2017-11-17T09:58:22.659Z,1028.54
2017-11-17T09:59:49.954Z,1028.53
2017-11-17T10:01:17.272Z,1028.54
2017-11-17T10:02:44.709Z,1028.52
2017-11-17T10:04:11.942Z,1028.55
2017-11-17T10:05:39.320Z,1028.54
2017-11-17T10:07:06.556Z,1028.54
2017-11-17T10:08:33.779Z,1028.52
2017-11-17T10:10:00.819Z,1028.52
2017-11-17T10:11:28.110Z,1028.50
2017-11-17T10:12:55.309Z,1028.49
2017-11-17T10:14:22.338Z,1028.48
2017-11-17T10:15:49.448Z,1028.49
2017-11-17T10:17:16.761Z,1028.48
2017-11-17T10:18:44.069Z,1028.49
2017-11-17T10:20:11.360Z,1028.46
2017-11-17T10:21:38.532Z,1028.48
2017-11-17T10:23:05.873Z,1028.46
2017-11-17T10:24:33.215Z,1028.46
2017-11-17T10:26:00.507Z,1028.45
2017-11-17T10:27:27.550Z,1028.46
2017-11-17T10:28:54.854Z,1028.44
2017-11-17T10:30:22.140Z,1028.42
2017-11-17T10:31:49.386Z,1028.38
2017-11-17T10:33:16.694Z,1028.38
2017-11-17T10:34:43.851Z,1028.36
2017-11-17T10:36:11.128Z,1028.35
2017-11-17T10:37:38.370Z,1028.32
2017-11-17T10:39:05.610Z,1028.34
2017-11-17T10:40:32.791Z,1028.34
2017-11-17T10:42:00.117Z,1028.33
2017-11-17T10:43:27.499Z,1028.34
2017-11-17T10:44:54.868Z,1028.31
2017-11-17T10:46:21.946Z,1028.32
2017-11-17T10:47:49.186Z,1028.34
2017-11-17T10:49:16.456Z,1028.34
2017-11-17T10:50:43.773Z,1028.31
2017-11-17T10:52:11.215Z,1028.30
2017-11-17T10:53:38.517Z,1028.25
2017-11-17T10:55:06.010Z,1028.29
2017-11-17T10:56:33.334Z,1028.28
2017-11-17T10:58:00.389Z,1028.30
2017-11-17T10:59:27.897Z,1028.30
2017-11-17T11:00:54.974Z,1028.33
2017-11-17T11:02:22.290Z,1028.29
2017-11-17T11:03:49.644Z,1028.30
2017-11-17T11:05:17.020Z,1028.32
2017-11-17T11:06:44.156Z,1028.31
2017-11-17T11:08:11.246Z,1028.31
2017-11-17T11:09:38.681Z,1028.31
2017-11-17T11:11:05.908Z,1028.30
2017-11-17T11:12:33.093Z,1028.32
2017-11-17T11:14:00.656Z,1028.33
2017-11-17T11:15:28.056Z,1028.31
2017-11-17T11:16:55.221Z,1028.31
2017-11-17T11:18:22.452Z,1028.29
2017-11-17T11:19:49.714Z,1028.26
2017-11-17T11:21:17.220Z,1028.25
2017-11-17T11:22:44.550Z,1028.24
2017-11-17T11:24:11.835Z,1028.25
2017-11-17T11:25:39.193Z,1028.26
2017-11-17T11:27:06.619Z,1028.27
2017-11-17T11:28:33.763Z,1028.27
2017-11-17T11:30:01.136Z,1028.23
2017-11-17T11:31:28.406Z,1028.19
2017-11-17T11:32:55.693Z,1028.15
2017-11-17T11:34:22.847Z,1028.15
2017-11-17T11:35:50.311Z,1028.15
2017-11-17T11:37:17.761Z,1028.13
2017-11-17T11:38:45.189Z,1028.15
2017-11-17T11:40:12.613Z,1028.15
2017-11-17T11:41:39.988Z,1028.16
2017-11-17T11:43:07.547Z,1028.18
2017-11-17T11:44:34.780Z,1028.19
2017-11-17T11:46:02.233Z,1028.20
2017-11-17T11:47:29.519Z,1028.19
2017-11-17T11:48:56.731Z,1028.17
2017-11-17T11:50:24.015Z,1028.16
2017-11-17T11:51:51.382Z,1028.16
2017-11-17T11:53:18.738Z,1028.13
2017-11-17T11:54:46.023Z,1028.11
2017-11-17T11:56:13.336Z,1028.11
2017-11-17T11:57:40.709Z,1028.13
2017-11-17T11:59:08.005Z,1028.12
2017-11-17T12:00:35.249Z,1028.09
2017-11-17T12:02:02.574Z,1028.09
2017-11-17T12:03:29.977Z,1028.07
2017-11-17T12:04:57.022Z,1028.05
2017-11-17T12:06:24.350Z,1028.05
2017-11-17T12:07:51.545Z,1028.01
2017-11-17T12:09:18.945Z,1028.01
2017-11-17T12:10:46.452Z,1028.01
2017-11-17T12:12:13.689Z,1028.04
2017-11-17T12:13:41.022Z,1028.03
2017-11-17T12:15:08.107Z,1027.99
2017-11-17T12:16:35.329Z,1027.95
2017-11-17T12:18:02.866Z,1027.95
2017-11-17T12:19:30.243Z,1027.95
2017-11-17T12:20:57.572Z,1027.91
2017-11-17T12:22:24.659Z,1027.90
2017-11-17T12:23:52.155Z,1027.90
2017-11-17T12:25:19.362Z,1027.89
2017-11-17T12:26:46.878Z,1027.88
2017-11-17T12:28:13.989Z,1027.85
2017-11-17T12:29:41.226Z,1027.83
2017-11-17T12:31:08.640Z,1027.82
2017-11-17T12:32:36.099Z,1027.77
2017-11-17T12:34:03.455Z,1027.75
2017-11-17T12:35:30.604Z,1027.76
2017-11-17T12:36:57.903Z,1027.74
2017-11-17T12:38:25.310Z,1027.73
2017-11-17T12:39:52.464Z,1027.70
2017-11-17T12:41:19.835Z,1027.68
2017-11-17T12:42:47.196Z,1027.69
2017-11-17T12:44:14.686Z,1027.70
2017-11-17T12:45:41.845Z,1027.71
2017-11-17T12:47:09.178Z,1027.68
2017-11-17T12:48:36.540Z,1027.67
2017-11-17T12:50:03.789Z,1027.66
2017-11-17T12:51:31.340Z,1027.65
2017-11-17T12:52:58.763Z,1027.62
2017-11-17T12:54:26.039Z,1027.62
2017-11-17T12:55:53.355Z,1027.64
2017-11-17T12:57:20.712Z,1027.63
2017-11-17T12:58:48.125Z,1027.61
2017-11-17T13:00:15.472Z,1027.59
2017-11-17T13:01:42.910Z,1027.59
2017-11-17T13:03:10.079Z,1027.59
2017-11-17T13:04:37.421Z,1027.62
2017-11-17T13:06:04.869Z,1027.57
2017-11-17T13:07:32.256Z,1027.57
2017-11-17T13:08:59.434Z,1027.57
2017-11-17T13:10:26.877Z,1027.57
2017-11-17T13:11:54.203Z,1027.53
2017-11-17T13:13:21.692Z,1027.51
2017-11-17T13:14:49.006Z,1027.49
2017-11-17T13:16:16.209Z,1027.45
2017-11-17T13:17:43.625Z,1027.45
2017-11-17T13:19:10.994Z,1027.45
2017-11-17T13:20:38.445Z,1027.44
2017-11-17T13:22:06.488Z,1027.41
2017-11-17T13:23:33.041Z,1027.39
2017-11-17T13:25:00.502Z,1027.34
2017-11-17T13:26:27.849Z,1027.34
2017-11-17T13:27:55.212Z,1027.35
2017-11-17T13:29:22.579Z,1027.39
2017-11-17T13:30:49.931Z,1027.37
2017-11-17T13:32:17.352Z,1027.37
2017-11-17T13:33:44.589Z,1027.37
2017-11-17T13:35:12.305Z,1027.36
2017-11-17T13:36:39.484Z,1027.39
2017-11-17T13:38:06.866Z,1027.33
2017-11-17T13:39:34.267Z,1027.32
2017-11-17T13:41:01.698Z,1027.36
2017-11-17T13:42:28.868Z,1027.34
2017-11-17T13:43:56.224Z,1027.33
2017-11-17T13:45:23.335Z,1027.31
2017-11-17T13:46:50.588Z,1027.33
2017-11-17T13:48:17.890Z,1027.31
2017-11-17T13:49:45.328Z,1027.32
2017-11-17T13:51:12.687Z,1027.31
2017-11-17T13:52:40.011Z,1027.30
2017-11-17T13:54:07.025Z,1027.28
2017-11-17T13:55:34.297Z,1027.29
2017-11-17T13:57:01.749Z,1027.28
2017-11-17T13:58:29.044Z,1027.28
2017-11-17T13:59:56.332Z,1027.26
2017-11-17T14:01:23.696Z,1027.28
2017-11-17T14:02:51.016Z,1027.27
2017-11-17T14:04:18.503Z,1027.28
2017-11-17T14:05:45.862Z,1027.30
2017-11-17T14:07:13.333Z,1027.28
2017-11-17T14:08:40.703Z,1027.29
2017-11-17T14:10:07.895Z,1027.30
2017-11-17T14:11:35.104Z,1027.31
2017-11-17T14:13:02.582Z,1027.31
2017-11-17T14:14:29.729Z,1027.33
2017-11-17T14:15:56.789Z,1027.33
2017-11-17T14:17:24.055Z,1027.31
2017-11-17T14:18:51.496Z,1027.33
2017-11-17T14:20:18.786Z,1027.30
2017-11-17T14:21:46.089Z,1027.25
2017-11-17T14:23:13.407Z,1027.24
2017-11-17T14:24:40.745Z,1027.24
2017-11-17T14:26:08.235Z,1027.22
2017-11-17T14:27:35.508Z,1027.24
2017-11-17T14:29:02.893Z,1027.26
2017-11-17T14:30:30.158Z,1027.27
2017-11-17T14:31:57.467Z,1027.31
2017-11-17T14:33:24.808Z,1027.30
2017-11-17T14:34:52.077Z,1027.31
2017-11-17T14:36:19.419Z,1027.30
2017-11-17T14:37:46.810Z,1027.30
2017-11-17T14:39:14.122Z,1027.32
2017-11-17T14:40:41.463Z,1027.29
2017-11-17T14:42:08.903Z,1027.30
2017-11-17T14:43:36.226Z,1027.28
2017-11-17T14:45:03.719Z,1027.25
2017-11-17T14:46:30.856Z,1027.25
2017-11-17T14:47:57.948Z,1027.26
2017-11-17T14:49:25.290Z,1027.25
2017-11-17T14:50:52.801Z,1027.23
2017-11-17T14:52:20.029Z,1027.21
2017-11-17T14:53:47.466Z,1027.20
2017-11-17T14:55:14.851Z,1027.21
2017-11-17T14:56:42.175Z,1027.23
2017-11-17T14:58:09.363Z,1027.28
2017-11-17T14:59:36.711Z,1027.31
2017-11-17T15:01:04.098Z,1027.26
2017-11-17T15:02:31.452Z,1027.27
2017-11-17T15:03:58.777Z,1027.26
2017-11-17T15:05:25.936Z,1027.22
2017-11-17T15:06:53.263Z,1027.23
2017-11-17T15:08:21.691Z,1027.21
2017-11-17T15:09:48.004Z,1027.21
2017-11-17T15:11:15.387Z,1027.20
2017-11-17T15:12:42.834Z,1027.17
2017-11-17T15:14:10.085Z,1027.18
2017-11-17T15:15:37.470Z,1027.19
2017-11-17T15:17:04.668Z,1027.19
2017-11-17T15:18:32.017Z,1027.20
2017-11-17T15:19:59.369Z,1027.23
2017-11-17T15:21:26.825Z,1027.24
2017-11-17T15:22:54.282Z,1027.24
2017-11-17T15:24:21.540Z,1027.24
2017-11-17T15:25:48.860Z,1027.26
2017-11-17T15:27:16.074Z,1027.26
2017-11-17T15:28:43.338Z,1027.27
2017-11-17T15:30:10.691Z,1027.28
2017-11-17T15:31:37.871Z,1027.28
2017-11-17T15:33:05.227Z,1027.29
2017-11-17T15:34:32.675Z,1027.30
2017-11-17T15:36:00.203Z,1027.32
2017-11-17T15:37:27.393Z,1027.30
2017-11-17T15:38:54.431Z,1027.31
2017-11-17T15:40:21.896Z,1027.31
2017-11-17T15:41:49.265Z,1027.31
2017-11-17T15:43:16.479Z,1027.31
2017-11-17T15:44:43.865Z,1027.30
2017-11-17T15:46:11.146Z,1027.31
2017-11-17T15:47:38.697Z,1027.32
2017-11-17T15:49:05.810Z,1027.31
2017-11-17T15:50:33.056Z,1027.26
2017-11-17T15:52:00.307Z,1027.23
2017-11-17T15:53:27.585Z,1027.19
2017-11-17T15:54:54.899Z,1027.14
2017-11-17T15:56:22.055Z,1027.10
2017-11-17T15:57:49.416Z,1027.08
2017-11-17T15:59:16.901Z,1027.04
2017-11-17T16:00:43.982Z,1027.01
2017-11-17T16:02:11.259Z,1026.98
2017-11-17T16:03:38.644Z,1026.99
2017-11-17T16:05:05.547Z,1026.98
2017-11-17T16:06:32.897Z,1026.97
2017-11-17T16:08:00.339Z,1026.99
2017-11-17T16:09:27.578Z,1026.98
2017-11-17T16:10:54.693Z,1027.01
2017-11-17T16:12:22.101Z,1027.02
2017-11-17T16:13:49.209Z,1027.04
2017-11-17T16:15:16.526Z,1027.02
2017-11-17T16:16:43.839Z,1027.02
2017-11-17T16:18:11.219Z,1027.03
2017-11-17T16:19:38.417Z,1027.01
2017-11-17T16:21:05.758Z,1026.98
2017-11-17T16:22:33.026Z,1026.96
2017-11-17T16:24:00.263Z,1026.94
2017-11-17T16:25:27.630Z,1026.94
2017-11-17T16:26:54.887Z,1026.93
2017-11-17T16:28:22.051Z,1026.93
2017-11-17T16:29:49.242Z,1026.94
2017-11-17T16:31:16.759Z,1026.95
2017-11-17T16:32:44.088Z,1026.97
2017-11-17T16:34:11.551Z,1026.98
2017-11-17T16:35:38.519Z,1026.97
2017-11-17T16:37:05.918Z,1026.98
2017-11-17T16:38:33.250Z,1026.97
2017-11-17T16:40:00.585Z,1026.96
2017-11-17T16:41:27.895Z,1026.94
2017-11-17T16:42:55.075Z,1026.94
2017-11-17T16:44:22.471Z,1026.95
2017-11-17T16:45:49.809Z,1026.94
2017-11-17T16:47:17.198Z,1026.95
2017-11-17T16:48:44.596Z,1026.97
2017-11-17T16:50:15.013Z,1026.94
2017-11-17T16:51:39.235Z,1026.92
2017-11-17T16:53:06.535Z,1026.92
2017-11-17T16:54:33.566Z,1026.92
2017-11-17T16:56:00.855Z,1026.93
2017-11-17T16:57:28.011Z,1026.95
2017-11-17T16:58:55.138Z,1026.95
2017-11-17T17:00:22.350Z,1026.94
2017-11-17T17:01:49.736Z,1026.95
2017-11-17T17:03:16.866Z,1026.93
2017-11-17T17:04:44.163Z,1026.91
2017-11-17T17:06:11.382Z,1026.86
2017-11-17T17:07:38.781Z,1026.86
2017-11-17T17:09:05.897Z,1026.86
2017-11-17T17:10:33.183Z,1026.86
2017-11-17T17:12:00.532Z,1026.84
2017-11-17T17:13:27.923Z,1026.84
2017-11-17T17:14:55.059Z,1026.84
2017-11-17T17:16:22.236Z,1026.83
2017-11-17T17:17:49.609Z,1026.79
2017-11-17T17:19:16.948Z,1026.78
2017-11-17T17:20:44.278Z,1026.75
2017-11-17T17:22:11.621Z,1026.72
2017-11-17T17:23:39.100Z,1026.72
2017-11-17T17:25:06.220Z,1026.72
2017-11-17T17:26:33.509Z,1026.71
2017-11-17T17:28:00.774Z,1026.70
2017-11-17T17:29:28.020Z,1026.69
2017-11-17T17:30:55.272Z,1026.67
2017-11-17T17:32:22.718Z,1026.67
2017-11-17T17:33:50.035Z,1026.67
2017-11-17T17:35:17.388Z,1026.68